sensor_id;sensor_type;location;lat;lon;timestamp;pressure;altitude;pressure_sealevel;temperature;humidity
10732;BME280;5417;42.686;23.244;2023-03-21T00:23:24;94113.28;;;13.73;48.03
10732;BME280;5417;42.686;23.244;2023-03-21T00:54:44;94114.97;;;13.29;49.66
10732;BME280;5417;42.686;23.244;2023-03-21T00:57:11;94116.41;;;13.23;50.12
10732;BME280;5417;42.686;23.244;2023-03-21T01:00:32;94114.59;;;13.23;50.45
10732;BME280;5417;42.686;23.244;2023-03-21T01:02:59;94100.47;;;13.16;50.76
10732;BME280;5417;42.686;23.244;2023-03-21T01:05:33;94106.25;;;13.20;50.38
10732;BME280;5417;42.686;23.244;2023-03-21T01:12:06;94103.38;;;13.13;49.86
10732;BME280;5417;42.686;23.244;2023-03-21T01:14:37;94103.38;;;13.13;50.28
10732;BME280;5417;42.686;23.244;2023-03-21T01:17:08;94102.41;;;13.14;50.05
10732;BME280;5417;42.686;23.244;2023-03-21T01:19:39;94101.56;;;13.14;50.17
10732;BME280;5417;42.686;23.244;2023-03-21T01:22:07;94107.78;;;13.13;49.97
10732;BME280;5417;42.686;23.244;2023-03-21T01:28:07;94091.94;;;12.87;50.65
10732;BME280;5417;42.686;23.244;2023-03-21T01:30:35;94117.31;;;13.04;50.77
10732;BME280;5417;42.686;23.244;2023-03-21T01:33:25;94112.09;;;13.04;50.37
10732;BME280;5417;42.686;23.244;2023-03-21T01:36:17;94115.19;;;13.17;51.14
10732;BME280;5417;42.686;23.244;2023-03-21T01:42:11;94102.84;;;13.10;50.59
10732;BME280;5417;42.686;23.244;2023-03-21T01:51:35;94105.22;;;13.03;51.14
10732;BME280;5417;42.686;23.244;2023-03-21T02:00:26;94100.41;;;12.99;51.07
10732;BME280;5417;42.686;23.244;2023-03-21T02:06:19;94101.22;;;12.99;50.81
10732;BME280;5417;42.686;23.244;2023-03-21T02:08:50;94094.50;;;12.96;50.93
10732;BME280;5417;42.686;23.244;2023-03-21T02:17:57;94085.31;;;12.92;50.95
10732;BME280;5417;42.686;23.244;2023-03-21T02:21:02;94084.34;;;12.93;50.97
10732;BME280;5417;42.686;23.244;2023-03-21T02:27:07;94082.47;;;12.86;51.67
10732;BME280;5417;42.686;23.244;2023-03-21T02:36:54;94081.81;;;12.84;52.67
10732;BME280;5417;42.686;23.244;2023-03-21T02:40:31;94069.47;;;12.76;51.65
10732;BME280;5417;42.686;23.244;2023-03-21T02:43:39;94085.31;;;12.92;51.60
10732;BME280;5417;42.686;23.244;2023-03-21T02:52:35;94082.63;;;12.84;51.98
10732;BME280;5417;42.686;23.244;2023-03-21T02:58:32;94068.03;;;12.64;52.89
10732;BME280;5417;42.686;23.244;2023-03-21T03:48:33;94089.69;;;12.37;52.13
10732;BME280;5417;42.686;23.244;2023-03-21T03:58:08;94088.38;;;12.23;52.54
10732;BME280;5417;42.686;23.244;2023-03-21T04:01:28;94081.81;;;12.19;52.39
10732;BME280;5417;42.686;23.244;2023-03-21T04:07:38;94085.41;;;12.09;53.25
10732;BME280;5417;42.686;23.244;2023-03-21T04:17:04;94061.00;;;11.90;53.19
10732;BME280;5417;42.686;23.244;2023-03-21T04:19:45;94070.84;;;11.96;54.14
10732;BME280;5417;42.686;23.244;2023-03-21T04:32:12;94057.16;;;11.85;53.79
10732;BME280;5417;42.686;23.244;2023-03-21T04:48:12;94071.41;;;12.10;53.37
10732;BME280;5417;42.686;23.244;2023-03-21T04:50:41;94080.94;;;12.28;53.35
10732;BME280;5417;42.686;23.244;2023-03-21T04:53:36;94085.16;;;12.49;52.82
10732;BME280;5417;42.686;23.244;2023-03-21T04:56:04;94090.56;;;12.65;52.22
10732;BME280;5417;42.686;23.244;2023-03-21T04:58:50;94077.69;;;12.81;51.44
10732;BME280;5417;42.686;23.244;2023-03-21T05:01:17;94058.06;;;12.77;51.45
10732;BME280;5417;42.686;23.244;2023-03-21T05:04:04;94091.22;;;12.94;53.13
10732;BME280;5417;42.686;23.244;2023-03-21T05:06:31;94081.94;;;12.82;52.79
10732;BME280;5417;42.686;23.244;2023-03-21T05:09:52;94092.97;;;12.76;52.20
10732;BME280;5417;42.686;23.244;2023-03-21T05:16:31;94089.06;;;12.62;52.92
10732;BME280;5417;42.686;23.244;2023-03-21T05:18:51;94094.03;;;12.56;52.84
10732;BME280;5417;42.686;23.244;2023-03-21T05:21:21;94081.69;;;12.48;53.39
10732;BME280;5417;42.686;23.244;2023-03-21T05:23:50;94097.34;;;12.58;53.23
10732;BME280;5417;42.686;23.244;2023-03-21T05:26:19;94099.13;;;12.57;53.14
10732;BME280;5417;42.686;23.244;2023-03-21T05:28:47;94091.97;;;12.59;53.25
10732;BME280;5417;42.686;23.244;2023-03-21T05:31:16;94082.50;;;12.58;52.44
10732;BME280;5417;42.686;23.244;2023-03-21T05:34:24;94096.56;;;12.75;53.03
10732;BME280;5417;42.686;23.244;2023-03-21T05:39:57;94083.50;;;12.75;52.45
10732;BME280;5417;42.686;23.244;2023-03-21T05:42:25;94071.69;;;12.71;53.10
10732;BME280;5417;42.686;23.244;2023-03-21T05:48:16;94076.22;;;12.96;54.00
10732;BME280;5417;42.686;23.244;2023-03-21T05:50:44;94037.16;;;12.77;53.02
10732;BME280;5417;42.686;23.244;2023-03-21T05:56:55;94062.78;;;13.19;53.47
10732;BME280;5417;42.686;23.244;2023-03-21T05:59:25;94073.38;;;13.35;53.55
10732;BME280;5417;42.686;23.244;2023-03-21T06:05:21;94052.47;;;13.53;51.79
10732;BME280;5417;42.686;23.244;2023-03-21T06:08:27;94037.00;;;13.60;51.76
10732;BME280;5417;42.686;23.244;2023-03-21T06:11:26;94068.09;;;13.88;50.81
10732;BME280;5417;42.686;23.244;2023-03-21T06:14:08;94050.19;;;14.02;51.78
10732;BME280;5417;42.686;23.244;2023-03-21T06:16:40;94042.44;;;14.10;50.42
10732;BME280;5417;42.686;23.244;2023-03-21T06:19:13;94014.34;;;14.20;48.01
10732;BME280;5417;42.686;23.244;2023-03-21T06:21:45;94063.19;;;14.63;48.24
10732;BME280;5417;42.686;23.244;2023-03-21T06:24:24;94014.06;;;14.31;49.93
10732;BME280;5417;42.686;23.244;2023-03-21T06:26:51;94038.44;;;14.32;49.18
10732;BME280;5417;42.686;23.244;2023-03-21T06:29:19;94031.38;;;14.24;48.97
10732;BME280;5417;42.686;23.244;2023-03-21T06:31:47;94021.53;;;13.92;50.22
10732;BME280;5417;42.686;23.244;2023-03-21T06:34:20;94055.53;;;13.92;50.14
10732;BME280;5417;42.686;23.244;2023-03-21T06:36:47;94035.81;;;13.54;50.79
10732;BME280;5417;42.686;23.244;2023-03-21T06:39:19;94046.56;;;13.51;50.96
10732;BME280;5417;42.686;23.244;2023-03-21T06:41:50;94043.66;;;13.36;51.46
10732;BME280;5417;42.686;23.244;2023-03-21T06:44:20;94046.81;;;13.22;51.08
10732;BME280;5417;42.686;23.244;2023-03-21T06:46:48;94058.59;;;13.26;51.37
10732;BME280;5417;42.686;23.244;2023-03-21T06:49:24;94073.53;;;13.34;50.63
10732;BME280;5417;42.686;23.244;2023-03-21T06:52:17;94019.75;;;13.13;50.26
10732;BME280;5417;42.686;23.244;2023-03-21T06:54:47;94043.13;;;13.33;50.57
10732;BME280;5417;42.686;23.244;2023-03-21T06:57:19;94079.31;;;13.55;49.51
10732;BME280;5417;42.686;23.244;2023-03-21T06:59:57;94075.25;;;13.43;48.87
10732;BME280;5417;42.686;23.244;2023-03-21T07:02:24;94052.09;;;13.30;49.61
10732;BME280;5417;42.686;23.244;2023-03-21T07:04:54;94061.50;;;13.58;49.88
10732;BME280;5417;42.686;23.244;2023-03-21T07:07:26;94039.09;;;13.56;49.47
10732;BME280;5417;42.686;23.244;2023-03-21T07:09:58;94046.50;;;13.61;50.10
10732;BME280;5417;42.686;23.244;2023-03-21T07:12:34;94055.28;;;13.77;49.33
10732;BME280;5417;42.686;23.244;2023-03-21T07:15:09;94033.47;;;13.69;50.23
10732;BME280;5417;42.686;23.244;2023-03-21T07:17:40;94086.75;;;14.11;50.07
10732;BME280;5417;42.686;23.244;2023-03-21T07:20:12;94071.59;;;13.97;49.15
10732;BME280;5417;42.686;23.244;2023-03-21T07:22:39;94058.38;;;13.99;48.87
10732;BME280;5417;42.686;23.244;2023-03-21T07:25:09;94061.06;;;14.07;49.36
10732;BME280;5417;42.686;23.244;2023-03-21T07:27:39;94022.84;;;13.96;48.99
10732;BME280;5417;42.686;23.244;2023-03-21T07:30:10;94032.19;;;13.99;48.04
10732;BME280;5417;42.686;23.244;2023-03-21T07:32:37;94039.47;;;14.05;47.15
10732;BME280;5417;42.686;23.244;2023-03-21T07:35:13;94041.84;;;13.98;47.57
10732;BME280;5417;42.686;23.244;2023-03-21T07:37:40;94088.00;;;14.25;47.41
10732;BME280;5417;42.686;23.244;2023-03-21T07:40:12;94084.25;;;14.28;46.16
10732;BME280;5417;42.686;23.244;2023-03-21T07:42:42;94080.66;;;14.29;46.76
10732;BME280;5417;42.686;23.244;2023-03-21T07:45:11;94086.25;;;14.34;47.74
10732;BME280;5417;42.686;23.244;2023-03-21T07:47:45;94041.28;;;14.12;48.23
10732;BME280;5417;42.686;23.244;2023-03-21T07:50:18;94076.28;;;14.37;47.31
10732;BME280;5417;42.686;23.244;2023-03-21T07:52:45;94070.22;;;14.37;47.53
10732;BME280;5417;42.686;23.244;2023-03-21T07:55:12;94089.75;;;14.42;48.27
10732;BME280;5417;42.686;23.244;2023-03-21T07:57:41;94079.28;;;14.42;47.81
10732;BME280;5417;42.686;23.244;2023-03-21T08:00:11;94051.53;;;14.32;48.45
10732;BME280;5417;42.686;23.244;2023-03-21T08:02:50;94100.69;;;14.64;47.86
10732;BME280;5417;42.686;23.244;2023-03-21T08:05:22;94069.19;;;14.56;48.11
10732;BME280;5417;42.686;23.244;2023-03-21T08:07:58;94059.09;;;14.61;48.62
10732;BME280;5417;42.686;23.244;2023-03-21T08:10:27;94075.19;;;14.74;46.63
10732;BME280;5417;42.686;23.244;2023-03-21T08:12:56;94061.41;;;14.64;46.67
10732;BME280;5417;42.686;23.244;2023-03-21T08:15:25;94037.06;;;14.45;46.91
10732;BME280;5417;42.686;23.244;2023-03-21T08:17:52;94045.00;;;14.62;46.80
10732;BME280;5417;42.686;23.244;2023-03-21T08:20:20;94041.56;;;14.61;46.48
10732;BME280;5417;42.686;23.244;2023-03-21T08:22:50;94065.72;;;14.81;47.03
10732;BME280;5417;42.686;23.244;2023-03-21T08:25:19;94069.69;;;14.93;47.74
10732;BME280;5417;42.686;23.244;2023-03-21T08:27:47;94042.59;;;14.76;47.75
10732;BME280;5417;42.686;23.244;2023-03-21T08:30:16;94069.22;;;15.06;46.75
10732;BME280;5417;42.686;23.244;2023-03-21T08:32:47;94040.19;;;14.91;47.42
10732;BME280;5417;42.686;23.244;2023-03-21T08:35:16;94070.09;;;15.14;47.49
10732;BME280;5417;42.686;23.244;2023-03-21T08:37:43;94051.69;;;15.06;48.35
10732;BME280;5417;42.686;23.244;2023-03-21T08:40:14;94046.94;;;15.02;47.84
10732;BME280;5417;42.686;23.244;2023-03-21T08:42:42;94074.00;;;15.10;47.47
10732;BME280;5417;42.686;23.244;2023-03-21T08:45:13;94030.66;;;14.82;48.41
10732;BME280;5417;42.686;23.244;2023-03-21T08:47:40;94071.38;;;15.10;48.46
10732;BME280;5417;42.686;23.244;2023-03-21T08:50:16;94067.78;;;15.11;48.33
10732;BME280;5417;42.686;23.244;2023-03-21T08:52:46;94047.09;;;15.00;48.39
10732;BME280;5417;42.686;23.244;2023-03-21T08:55:14;94047.56;;;14.96;47.51
10732;BME280;5417;42.686;23.244;2023-03-21T08:57:47;94033.94;;;14.76;47.38
10732;BME280;5417;42.686;23.244;2023-03-21T09:00:16;94076.91;;;15.07;46.97
10732;BME280;5417;42.686;23.244;2023-03-21T09:02:48;94069.94;;;15.16;46.77
10732;BME280;5417;42.686;23.244;2023-03-21T09:05:18;94047.59;;;15.04;46.07
10732;BME280;5417;42.686;23.244;2023-03-21T09:07:55;94051.03;;;15.04;46.89
10732;BME280;5417;42.686;23.244;2023-03-21T09:10:26;94072.03;;;15.12;47.21
10732;BME280;5417;42.686;23.244;2023-03-21T09:13:01;94056.09;;;14.98;46.99
10732;BME280;5417;42.686;23.244;2023-03-21T09:15:33;94012.56;;;14.55;48.84
10732;BME280;5417;42.686;23.244;2023-03-21T09:18:03;94029.00;;;14.73;49.24
10732;BME280;5417;42.686;23.244;2023-03-21T09:20:48;94049.38;;;15.03;48.79
10732;BME280;5417;42.686;23.244;2023-03-21T09:23:19;94015.81;;;14.99;48.76
10732;BME280;5417;42.686;23.244;2023-03-21T09:25:52;94010.56;;;14.99;46.39
10732;BME280;5417;42.686;23.244;2023-03-21T09:28:23;93988.44;;;14.85;46.52
10732;BME280;5417;42.686;23.244;2023-03-21T09:30:50;93990.09;;;15.02;46.26
10732;BME280;5417;42.686;23.244;2023-03-21T09:33:20;93982.38;;;15.01;46.69
10732;BME280;5417;42.686;23.244;2023-03-21T09:35:54;94039.16;;;15.42;46.64
10732;BME280;5417;42.686;23.244;2023-03-21T09:38:22;94032.75;;;15.45;46.84
10732;BME280;5417;42.686;23.244;2023-03-21T09:41:02;94029.03;;;15.72;46.03
10732;BME280;5417;42.686;23.244;2023-03-21T09:43:40;93963.91;;;15.43;45.82
10732;BME280;5417;42.686;23.244;2023-03-21T09:46:20;94000.63;;;15.51;46.69
10732;BME280;5417;42.686;23.244;2023-03-21T09:48:59;93971.63;;;15.20;47.15
10732;BME280;5417;42.686;23.244;2023-03-21T09:51:40;93981.63;;;15.25;46.77
10732;BME280;5417;42.686;23.244;2023-03-21T09:54:15;93995.88;;;15.38;46.09
10732;BME280;5417;42.686;23.244;2023-03-21T09:56:44;94005.53;;;15.54;46.99
10732;BME280;5417;42.686;23.244;2023-03-21T09:59:20;93974.88;;;15.46;46.39
10732;BME280;5417;42.686;23.244;2023-03-21T10:01:52;93969.97;;;15.52;46.35
10732;BME280;5417;42.686;23.244;2023-03-21T10:04:27;94006.50;;;16.02;46.08
10732;BME280;5417;42.686;23.244;2023-03-21T10:07:01;93966.16;;;15.95;45.53
10732;BME280;5417;42.686;23.244;2023-03-21T10:09:29;93962.84;;;16.09;44.66
10732;BME280;5417;42.686;23.244;2023-03-21T10:12:14;93970.16;;;16.38;43.77
10732;BME280;5417;42.686;23.244;2023-03-21T10:14:49;93942.06;;;16.38;43.31
10732;BME280;5417;42.686;23.244;2023-03-21T10:17:28;93972.41;;;16.88;44.17
10732;BME280;5417;42.686;23.244;2023-03-21T10:20:09;93953.97;;;17.19;43.58
10732;BME280;5417;42.686;23.244;2023-03-21T10:22:48;93945.38;;;17.25;42.29
10732;BME280;5417;42.686;23.244;2023-03-21T10:25:27;93956.28;;;17.37;41.77
10732;BME280;5417;42.686;23.244;2023-03-21T10:28:11;93931.50;;;17.09;42.06
10732;BME280;5417;42.686;23.244;2023-03-21T10:30:45;93973.19;;;17.43;40.85
10732;BME280;5417;42.686;23.244;2023-03-21T10:33:23;93972.75;;;17.54;40.20
10732;BME280;5417;42.686;23.244;2023-03-21T10:35:58;93928.81;;;17.17;38.48
10732;BME280;5417;42.686;23.244;2023-03-21T10:38:42;93947.69;;;17.43;38.23
10732;BME280;5417;42.686;23.244;2023-03-21T10:41:13;93959.44;;;17.55;37.84
10732;BME280;5417;42.686;23.244;2023-03-21T10:43:41;93957.03;;;17.69;37.60
10732;BME280;5417;42.686;23.244;2023-03-21T10:46:18;93975.88;;;17.95;37.89
10732;BME280;5417;42.686;23.244;2023-03-21T10:48:53;93956.47;;;18.11;37.70
10732;BME280;5417;42.686;23.244;2023-03-21T10:51:32;93986.81;;;18.36;37.48
10732;BME280;5417;42.686;23.244;2023-03-21T10:54:15;93941.50;;;18.26;37.77
10732;BME280;5417;42.686;23.244;2023-03-21T10:57:06;93953.09;;;18.46;36.93
10732;BME280;5417;42.686;23.244;2023-03-21T10:59:42;93947.84;;;18.46;36.14
10732;BME280;5417;42.686;23.244;2023-03-21T11:02:17;93933.22;;;18.44;36.93
10732;BME280;5417;42.686;23.244;2023-03-21T11:04:48;93925.38;;;18.65;36.47
10732;BME280;5417;42.686;23.244;2023-03-21T11:07:27;93912.56;;;18.77;35.94
10732;BME280;5417;42.686;23.244;2023-03-21T11:09:59;93912.88;;;18.88;36.32
10732;BME280;5417;42.686;23.244;2023-03-21T11:12:32;93924.50;;;18.94;34.73
10732;BME280;5417;42.686;23.244;2023-03-21T11:15:24;93932.81;;;18.76;35.21
10732;BME280;5417;42.686;23.244;2023-03-21T11:17:52;93910.81;;;18.54;35.00
10732;BME280;5417;42.686;23.244;2023-03-21T11:20:20;93925.38;;;18.50;35.09
10732;BME280;5417;42.686;23.244;2023-03-21T11:22:47;93931.03;;;18.47;35.21
10732;BME280;5417;42.686;23.244;2023-03-21T11:25:23;93918.69;;;18.33;35.13
10732;BME280;5417;42.686;23.244;2023-03-21T11:27:55;93921.41;;;18.40;35.31
10732;BME280;5417;42.686;23.244;2023-03-21T11:30:30;93920.84;;;18.44;35.48
10732;BME280;5417;42.686;23.244;2023-03-21T11:33:07;93920.94;;;18.36;35.52
10732;BME280;5417;42.686;23.244;2023-03-21T11:35:39;93910.88;;;18.25;36.11
10732;BME280;5417;42.686;23.244;2023-03-21T11:38:24;93917.69;;;18.34;36.31
10732;BME280;5417;42.686;23.244;2023-03-21T11:41:00;93889.25;;;18.29;36.19
10732;BME280;5417;42.686;23.244;2023-03-21T11:43:47;93898.94;;;18.44;35.56
10732;BME280;5417;42.686;23.244;2023-03-21T11:46:29;93895.78;;;18.34;35.54
10732;BME280;5417;42.686;23.244;2023-03-21T11:49:00;93884.88;;;18.37;35.57
10732;BME280;5417;42.686;23.244;2023-03-21T11:51:35;93893.50;;;18.45;35.99
10732;BME280;5417;42.686;23.244;2023-03-21T11:54:24;93882.69;;;18.40;36.00
10732;BME280;5417;42.686;23.244;2023-03-21T11:57:11;93894.28;;;18.60;36.43
10732;BME280;5417;42.686;23.244;2023-03-21T11:59:47;93886.78;;;18.43;35.84
10732;BME280;5417;42.686;23.244;2023-03-21T12:02:44;93870.63;;;18.16;34.40
10732;BME280;5417;42.686;23.244;2023-03-21T12:05:26;93862.09;;;18.14;34.99
10732;BME280;5417;42.686;23.244;2023-03-21T12:08:12;93878.72;;;18.29;35.20
10732;BME280;5417;42.686;23.244;2023-03-21T12:10:55;93866.16;;;18.17;35.85
10732;BME280;5417;42.686;23.244;2023-03-21T12:13:42;93880.34;;;18.31;36.24
10732;BME280;5417;42.686;23.244;2023-03-21T12:16:34;93885.09;;;18.56;36.96
10732;BME280;5417;42.686;23.244;2023-03-21T12:19:22;93878.75;;;18.51;36.20
10732;BME280;5417;42.686;23.244;2023-03-21T12:22:00;93869.22;;;18.50;36.02
10732;BME280;5417;42.686;23.244;2023-03-21T12:24:37;93848.56;;;18.32;35.13
10732;BME280;5417;42.686;23.244;2023-03-21T12:27:13;93844.91;;;18.33;35.51
10732;BME280;5417;42.686;23.244;2023-03-21T12:30:08;93821.94;;;18.27;35.09
10732;BME280;5417;42.686;23.244;2023-03-21T12:32:47;93853.56;;;18.27;33.46
10732;BME280;5417;42.686;23.244;2023-03-21T12:35:34;93858.28;;;18.32;34.26
10732;BME280;5417;42.686;23.244;2023-03-21T12:38:14;93823.63;;;17.98;34.38
10732;BME280;5417;42.686;23.244;2023-03-21T12:41:02;93860.91;;;18.17;35.02
10732;BME280;5417;42.686;23.244;2023-03-21T12:43:45;93849.75;;;18.00;35.37
10732;BME280;5417;42.686;23.244;2023-03-21T12:46:23;93859.38;;;18.08;34.78
10732;BME280;5417;42.686;23.244;2023-03-21T12:48:57;93823.34;;;17.93;34.75
10732;BME280;5417;42.686;23.244;2023-03-21T12:51:33;93845.88;;;17.96;34.18
10732;BME280;5417;42.686;23.244;2023-03-21T12:54:17;93855.31;;;17.90;34.15
10732;BME280;5417;42.686;23.244;2023-03-21T12:57:03;93812.69;;;17.57;34.35
10732;BME280;5417;42.686;23.244;2023-03-21T12:59:49;93813.50;;;17.58;34.42
10732;BME280;5417;42.686;23.244;2023-03-21T13:02:29;93806.84;;;17.70;34.52
10732;BME280;5417;42.686;23.244;2023-03-21T13:05:15;93795.13;;;17.87;34.81
10732;BME280;5417;42.686;23.244;2023-03-21T13:07:48;93821.94;;;18.12;34.85
10732;BME280;5417;42.686;23.244;2023-03-21T13:10:41;93795.56;;;17.91;35.21
10732;BME280;5417;42.686;23.244;2023-03-21T13:13:17;93807.88;;;18.05;34.37
10732;BME280;5417;42.686;23.244;2023-03-21T13:16:00;93781.31;;;17.85;34.43
10732;BME280;5417;42.686;23.244;2023-03-21T13:18:53;93816.69;;;18.12;34.68
10732;BME280;5417;42.686;23.244;2023-03-21T13:21:48;93800.53;;;18.01;34.55
10732;BME280;5417;42.686;23.244;2023-03-21T13:24:37;93772.44;;;17.86;34.81
10732;BME280;5417;42.686;23.244;2023-03-21T13:27:29;93807.63;;;18.00;35.04
10732;BME280;5417;42.686;23.244;2023-03-21T13:29:59;93813.34;;;18.04;34.64
10732;BME280;5417;42.686;23.244;2023-03-21T13:32:31;93766.91;;;17.66;34.98
10732;BME280;5417;42.686;23.244;2023-03-21T13:35:14;93799.75;;;17.85;35.10
10732;BME280;5417;42.686;23.244;2023-03-21T13:37:56;93777.53;;;17.73;35.24
10732;BME280;5417;42.686;23.244;2023-03-21T13:40:34;93781.97;;;17.73;35.40
10732;BME280;5417;42.686;23.244;2023-03-21T13:43:21;93783.22;;;17.91;34.80
10732;BME280;5417;42.686;23.244;2023-03-21T13:45:53;93772.97;;;17.82;35.21
10732;BME280;5417;42.686;23.244;2023-03-21T13:48:30;93804.19;;;18.00;35.40
10732;BME280;5417;42.686;23.244;2023-03-21T13:51:02;93769.19;;;17.70;35.49
10732;BME280;5417;42.686;23.244;2023-03-21T13:53:33;93743.91;;;17.60;35.64
10732;BME280;5417;42.686;23.244;2023-03-21T13:56:22;93788.59;;;17.83;35.87
10732;BME280;5417;42.686;23.244;2023-03-21T13:58:58;93783.50;;;17.82;35.95
10732;BME280;5417;42.686;23.244;2023-03-21T14:01:38;93761.97;;;17.63;35.97
10732;BME280;5417;42.686;23.244;2023-03-21T14:04:12;93792.69;;;17.71;36.01
10732;BME280;5417;42.686;23.244;2023-03-21T14:06:48;93764.44;;;17.50;36.53
10732;BME280;5417;42.686;23.244;2023-03-21T14:09:21;93761.97;;;17.49;36.63
10732;BME280;5417;42.686;23.244;2023-03-21T14:11:51;93789.50;;;17.76;36.65
10732;BME280;5417;42.686;23.244;2023-03-21T14:14:20;93773.78;;;17.67;36.64
10732;BME280;5417;42.686;23.244;2023-03-21T14:16:52;93781.97;;;17.73;37.29
10732;BME280;5417;42.686;23.244;2023-03-21T14:19:19;93769.50;;;17.52;37.22
10732;BME280;5417;42.686;23.244;2023-03-21T14:21:49;93787.66;;;17.61;37.45
10732;BME280;5417;42.686;23.244;2023-03-21T14:24:19;93790.28;;;17.61;37.37
10732;BME280;5417;42.686;23.244;2023-03-21T14:26:48;93783.13;;;17.55;37.98
10732;BME280;5417;42.686;23.244;2023-03-21T14:29:30;93779.22;;;17.51;37.99
10732;BME280;5417;42.686;23.244;2023-03-21T14:31:58;93764.16;;;17.30;38.29
10732;BME280;5417;42.686;23.244;2023-03-21T14:34:30;93786.56;;;17.41;38.73
10732;BME280;5417;42.686;23.244;2023-03-21T14:37:00;93761.91;;;17.27;38.57
10732;BME280;5417;42.686;23.244;2023-03-21T14:39:29;93785.31;;;17.37;38.91
10732;BME280;5417;42.686;23.244;2023-03-21T14:42:01;93757.59;;;17.12;39.28
10732;BME280;5417;42.686;23.244;2023-03-21T14:44:32;93774.41;;;17.25;39.54
10732;BME280;5417;42.686;23.244;2023-03-21T14:47:05;93781.50;;;17.40;40.15
10732;BME280;5417;42.686;23.244;2023-03-21T14:49:33;93777.31;;;17.30;40.68
10732;BME280;5417;42.686;23.244;2023-03-21T14:52:03;93794.81;;;17.53;40.84
10732;BME280;5417;42.686;23.244;2023-03-21T14:54:32;93791.94;;;17.33;41.39
10732;BME280;5417;42.686;23.244;2023-03-21T14:57:09;93747.06;;;16.97;41.58
10732;BME280;5417;42.686;23.244;2023-03-21T14:59:40;93781.53;;;17.02;42.22
10732;BME280;5417;42.686;23.244;2023-03-21T15:02:15;93770.63;;;16.90;41.97
10732;BME280;5417;42.686;23.244;2023-03-21T15:04:51;93788.13;;;16.83;43.94
10732;BME280;5417;42.686;23.244;2023-03-21T15:07:28;93776.69;;;16.76;43.02
10732;BME280;5417;42.686;23.244;2023-03-21T15:09:59;93790.09;;;16.81;43.03
10732;BME280;5417;42.686;23.244;2023-03-21T15:12:28;93789.25;;;16.66;43.43
10732;BME280;5417;42.686;23.244;2023-03-21T15:14:55;93774.47;;;16.57;43.70
10732;BME280;5417;42.686;23.244;2023-03-21T15:17:23;93800.03;;;16.71;44.12
10732;BME280;5417;42.686;23.244;2023-03-21T15:19:53;93802.69;;;16.71;43.62
10732;BME280;5417;42.686;23.244;2023-03-21T15:22:25;93804.25;;;16.80;43.92
10732;BME280;5417;42.686;23.244;2023-03-21T15:24:59;93790.47;;;16.78;43.78
10732;BME280;5417;42.686;23.244;2023-03-21T15:27:28;93780.84;;;16.70;44.16
10732;BME280;5417;42.686;23.244;2023-03-21T15:29:58;93804.94;;;16.74;44.36
10732;BME280;5417;42.686;23.244;2023-03-21T15:32:26;93806.47;;;16.68;45.43
10732;BME280;5417;42.686;23.244;2023-03-21T15:35:05;93819.91;;;16.74;46.83
10732;BME280;5417;42.686;23.244;2023-03-21T15:37:35;93808.34;;;16.52;48.71
10732;BME280;5417;42.686;23.244;2023-03-21T15:40:09;93810.16;;;16.28;48.69
10732;BME280;5417;42.686;23.244;2023-03-21T15:42:41;93790.03;;;16.13;49.53
10732;BME280;5417;42.686;23.244;2023-03-21T15:45:17;93818.31;;;16.33;50.61
10732;BME280;5417;42.686;23.244;2023-03-21T15:47:53;93820.66;;;16.28;51.14
10732;BME280;5417;42.686;23.244;2023-03-21T15:50:27;93795.97;;;16.06;51.66
10732;BME280;5417;42.686;23.244;2023-03-21T15:52:57;93820.06;;;16.18;52.76
10732;BME280;5417;42.686;23.244;2023-03-21T15:55:30;93818.09;;;16.12;53.82
10732;BME280;5417;42.686;23.244;2023-03-21T15:58:03;93817.50;;;16.02;54.39
10732;BME280;5417;42.686;23.244;2023-03-21T16:00:36;93824.59;;;15.93;55.56
10732;BME280;5417;42.686;23.244;2023-03-21T16:03:08;93824.66;;;15.85;56.07
10732;BME280;5417;42.686;23.244;2023-03-21T16:05:47;93844.94;;;15.91;56.79
10732;BME280;5417;42.686;23.244;2023-03-21T16:09:11;93841.72;;;15.81;57.93
10732;BME280;5417;42.686;23.244;2023-03-21T16:15:11;93818.53;;;15.37;59.20
10732;BME280;5417;42.686;23.244;2023-03-21T16:17:38;93865.88;;;15.52;60.08
10732;BME280;5417;42.686;23.244;2023-03-21T16:20:15;93858.69;;;15.38;61.27
10732;BME280;5417;42.686;23.244;2023-03-21T16:22:44;93870.16;;;15.37;61.86
10732;BME280;5417;42.686;23.244;2023-03-21T16:28:32;93850.69;;;14.82;63.37
10732;BME280;5417;42.686;23.244;2023-03-21T16:31:00;93834.63;;;14.53;62.33
10732;BME280;5417;42.686;23.244;2023-03-21T16:33:27;93861.50;;;14.63;63.46
10732;BME280;5417;42.686;23.244;2023-03-21T16:35:54;93843.63;;;14.42;64.82
10732;BME280;5417;42.686;23.244;2023-03-21T16:38:22;93842.13;;;14.40;65.31
10732;BME280;5417;42.686;23.244;2023-03-21T16:41:08;93853.13;;;14.43;65.64
10732;BME280;5417;42.686;23.244;2023-03-21T16:43:35;93849.81;;;14.41;65.38
10732;BME280;5417;42.686;23.244;2023-03-21T16:46:11;93857.06;;;14.56;66.44
10732;BME280;5417;42.686;23.244;2023-03-21T16:48:45;93851.97;;;14.54;66.39
10732;BME280;5417;42.686;23.244;2023-03-21T16:51:15;93857.59;;;14.75;68.00
10732;BME280;5417;42.686;23.244;2023-03-21T16:54:02;93842.53;;;14.61;68.79
10732;BME280;5417;42.686;23.244;2023-03-21T17:00:27;93772.34;;;13.48;69.94
10732;BME280;5417;42.686;23.244;2023-03-21T17:06:45;93798.00;;;12.92;73.58
10732;BME280;5417;42.686;23.244;2023-03-21T17:09:20;93848.22;;;13.30;73.99
10732;BME280;5417;42.686;23.244;2023-03-21T17:11:53;93834.19;;;13.31;74.08
10732;BME280;5417;42.686;23.244;2023-03-21T17:15:07;93830.00;;;13.46;74.34
10732;BME280;5417;42.686;23.244;2023-03-21T17:17:48;93854.00;;;13.68;73.86
10732;BME280;5417;42.686;23.244;2023-03-21T17:20:18;93828.78;;;13.58;73.98
10732;BME280;5417;42.686;23.244;2023-03-21T17:22:48;93820.16;;;13.66;72.07
10732;BME280;5417;42.686;23.244;2023-03-21T17:25:16;93851.78;;;13.89;72.25
10732;BME280;5417;42.686;23.244;2023-03-21T17:28:28;93839.81;;;13.78;72.31
10732;BME280;5417;42.686;23.244;2023-03-21T17:30:41;93867.28;;;13.82;72.54